Time;durP1;ratioP1;P1;durP2;ratioP2;P2;SDS_P1;SDS_P2;PMS_P1;PMS_P2;Temp;Humidity;BMP_temperature;BMP_pressure;BME280_temperature;BME280_humidity;BME280_pressure;Samples;Min_cycle;Max_cycle;Signal;HPM_P1;HPM_P2
2021/10/27 00:02:35;;;;;;;;;10.75;9.50;;;;;13.81;57.39;101759.78;146598;580;46018;-78
2021/10/27 00:05:13;;;;;;;;;14.00;11.50;;;;;13.87;57.42;101773.16;146599;621;46021;-76
2021/10/27 00:07:46;;;;;;;;;9.75;9.50;;;;;13.88;57.51;101763.62;146596;582;46016;-76
2021/10/27 00:10:22;;;;;;;;;6.00;6.00;;;;;13.86;57.54;101756.63;146600;579;46021;-76
2021/10/27 00:12:56;;;;;;;;;7.25;7.25;;;;;13.84;57.24;101755.63;146597;576;46019;-76
2021/10/27 00:15:30;;;;;;;;;8.25;6.50;;;;;13.82;56.81;101759.84;146602;586;46020;-78
2021/10/27 00:18:04;;;;;;;;;7.50;7.00;;;;;13.80;56.17;101764.09;146600;613;46025;-75
2021/10/27 00:20:38;;;;;;;;;12.00;10.00;;;;;13.79;56.07;101757.06;146598;601;47008;-76
2021/10/27 00:23:12;;;;;;;;;9.00;9.00;;;;;13.65;56.33;101728.50;146602;578;47010;-78
2021/10/27 00:25:46;;;;;;;;;12.75;9.50;;;;;13.75;56.63;101749.03;146600;637;47009;-77
2021/10/27 00:28:20;;;;;;;;;13.50;12.00;;;;;13.72;55.85;101747.12;146597;651;46033;-76
2021/10/27 00:30:54;;;;;;;;;10.75;9.75;;;;;13.68;55.38;101747.78;146599;622;46008;-76
2021/10/27 00:33:27;;;;;;;;;13.75;11.75;;;;;13.64;55.48;101745.81;146593;608;47011;-79
2021/10/27 00:36:01;;;;;;;;;11.00;11.00;;;;;13.59;55.87;101753.38;146599;577;46020;-78
2021/10/27 00:38:35;;;;;;;;;11.75;10.00;;;;;13.50;55.34;101750.28;146597;591;47010;-78
2021/10/27 00:41:13;;;;;;;;;10.00;9.00;;;;;13.36;55.19;101733.88;146598;594;48006;-78
2021/10/27 00:43:47;;;;;;;;;13.75;12.50;;;;;13.36;54.80;101745.97;146594;622;47010;-78
2021/10/27 00:46:28;;;;;;;;;13.00;11.75;;;;;13.29;54.46;101744.75;146599;575;46020;-78
2021/10/27 00:49:02;;;;;;;;;12.75;11.50;;;;;13.24;55.24;101738.37;146598;620;47010;-79
2021/10/27 00:51:36;;;;;;;;;12.00;12.00;;;;;13.20;55.50;101743.31;146600;602;46020;-84
2021/10/27 00:54:12;;;;;;;;;7.75;7.75;;;;;13.18;55.36;101740.62;146596;613;46018;-83
2021/10/27 00:56:47;;;;;;;;;11.50;10.50;;;;;13.17;55.30;101739.69;146599;577;46021;-80
2021/10/27 00:59:22;;;;;;;;;11.00;11.00;;;;;13.20;56.08;101746.78;146595;582;47010;-80
2021/10/27 01:01:57;;;;;;;;;9.50;9.50;;;;;13.23;56.58;101743.47;146602;570;46008;-80
2021/10/27 01:04:31;;;;;;;;;10.50;8.50;;;;;13.24;56.45;101735.75;146598;619;47010;-80
2021/10/27 01:07:05;;;;;;;;;11.25;9.75;;;;;13.28;56.25;101742.97;146602;593;46020;-80
2021/10/27 01:09:41;;;;;;;;;7.25;7.25;;;;;13.31;55.74;101755.28;146597;569;46030;-83
2021/10/27 01:12:16;;;;;;;;;11.50;9.50;;;;;13.33;55.61;101748.41;146602;625;46020;-73
2021/10/27 01:14:52;;;;;;;;;9.25;9.25;;;;;13.34;56.02;101748.53;146602;566;46016;-73
2021/10/27 01:17:26;;;;;;;;;12.00;8.00;;;;;13.38;56.28;101750.47;146602;606;46009;-75
2021/10/27 01:20:03;;;;;;;;;7.75;7.25;;;;;13.43;56.04;101753.34;146596;586;46010;-76
2021/10/27 01:22:42;;;;;;;;;8.25;7.50;;;;;13.44;55.36;101754.25;146598;617;46020;-77
2021/10/27 01:25:16;;;;;;;;;10.50;10.50;;;;;13.45;56.03;101745.59;146599;569;46017;-75
2021/10/27 01:27:53;;;;;;;;;9.75;7.25;;;;;13.44;55.94;101749.03;146601;582;46020;-74
2021/10/27 01:30:28;;;;;;;;;7.50;7.50;;;;;13.42;55.82;101745.44;146597;673;47010;-73
2021/10/27 01:33:02;;;;;;;;;11.75;10.50;;;;;13.45;55.97;101743.91;146602;579;46010;-73
2021/10/27 01:35:35;;;;;;;;;5.25;5.25;;;;;13.48;56.57;101733.66;146599;732;46016;-75
2021/10/27 01:38:10;;;;;;;;;7.75;7.75;;;;;13.52;56.62;101742.53;146600;635;46020;-75
2021/10/27 01:40:43;;;;;;;;;10.25;8.50;;;;;13.54;56.07;101741.81;146597;564;47010;-75
2021/10/27 01:43:17;;;;;;;;;7.75;7.00;;;;;13.54;55.71;101736.59;146601;662;46022;-73
2021/10/27 01:45:51;;;;;;;;;6.00;6.00;;;;;13.53;55.51;101736.53;146595;564;47010;-74
2021/10/27 01:48:26;;;;;;;;;8.00;7.00;;;;;13.53;55.68;101726.09;146598;569;46008;-73
2021/10/27 01:51:00;;;;;;;;;8.00;8.00;;;;;13.50;56.10;101726.81;146600;596;45909;-73
2021/10/27 01:53:34;;;;;;;;;7.00;7.00;;;;;13.51;56.05;101736.41;146602;591;46008;-74
2021/10/27 01:56:08;;;;;;;;;9.75;7.75;;;;;13.50;56.24;101718.13;146597;586;47010;-74
2021/10/27 01:58:42;;;;;;;;;11.50;9.00;;;;;13.50;56.05;101729.44;146599;670;46010;-75
2021/10/27 02:01:16;;;;;;;;;9.50;8.25;;;;;13.48;55.35;101727.53;146598;658;47010;-75
2021/10/27 02:03:50;;;;;;;;;9.75;7.50;;;;;13.49;55.71;101734.53;146601;684;46021;-79
2021/10/27 02:06:24;;;;;;;;;9.75;7.00;;;;;13.48;55.44;101732.75;146600;712;45909;-76
2021/10/27 02:08:58;;;;;;;;;9.25;7.75;;;;;13.48;55.71;101732.75;146597;631;47008;-76
2021/10/27 02:11:32;;;;;;;;;10.00;9.25;;;;;13.47;55.88;101739.69;146599;573;46016;-77
2021/10/27 02:14:06;;;;;;;;;8.75;7.25;;;;;13.48;55.61;101737.97;146603;600;46008;-76
2021/10/27 02:16:40;;;;;;;;;7.25;7.25;;;;;13.44;55.31;101734.28;146596;617;47010;-74
2021/10/27 02:19:14;;;;;;;;;9.75;9.50;;;;;13.44;55.28;101739.50;146600;622;46020;-73
2021/10/27 02:21:48;;;;;;;;;9.75;9.50;;;;;13.44;55.14;101739.50;146598;593;46016;-73
2021/10/27 02:24:22;;;;;;;;;7.00;7.00;;;;;13.46;55.18;101737.91;146600;602;47010;-76
2021/10/27 02:26:57;;;;;;;;;7.50;7.50;;;;;13.44;55.15;101736.91;146599;563;46016;-75
2021/10/27 02:29:31;;;;;;;;;10.00;9.00;;;;;13.46;55.33;101737.91;146599;637;47008;-75
2021/10/27 02:32:04;;;;;;;;;8.75;7.25;;;;;13.45;55.36;101727.38;146593;656;46016;-75
2021/10/27 02:34:38;;;;;;;;;9.50;7.50;;;;;13.45;55.37;101727.38;146600;605;46020;-74
2021/10/27 02:37:12;;;;;;;;;10.25;9.50;;;;;13.44;55.39;101729.09;146598;675;46016;-73
2021/10/27 02:39:46;;;;;;;;;10.00;9.25;;;;;13.44;56.06;101730.78;146599;698;46021;-72
2021/10/27 02:42:20;;;;;;;;;9.00;7.25;;;;;13.45;55.77;101733.47;146595;569;47010;-73
2021/10/27 02:44:54;;;;;;;;;12.50;9.50;;;;;13.47;55.92;101733.56;146601;591;46020;-75
2021/10/27 02:47:28;;;;;;;;;10.75;8.00;;;;;13.48;55.88;101730.16;146600;632;46010;-77
2021/10/27 02:50:02;;;;;;;;;10.00;8.75;;;;;13.49;56.21;101729.31;146601;674;46020;-75
2021/10/27 02:52:36;;;;;;;;;9.00;8.00;;;;;13.51;56.41;101731.22;146600;617;45910;-75
2021/10/27 02:55:10;;;;;;;;;9.50;9.50;;;;;13.54;57.18;101728.78;146600;607;46021;-74
2021/10/27 02:57:44;;;;;;;;;9.75;9.00;;;;;13.57;57.22;101731.53;146598;716;46016;-75
2021/10/27 03:00:18;;;;;;;;;7.00;6.50;;;;;12.76;57.09;101586.37;146599;565;46021;-75
2021/10/27 03:02:52;;;;;;;;;7.50;6.75;;;;;13.67;56.93;101737.28;146599;580;47010;-75
2021/10/27 03:05:27;;;;;;;;;11.00;8.00;;;;;13.72;56.71;101739.31;146600;565;46020;-75
2021/10/27 03:08:01;;;;;;;;;7.50;6.50;;;;;13.77;56.46;101748.28;146599;570;46010;-73
2021/10/27 03:10:35;;;;;;;;;10.00;9.00;;;;;13.83;56.63;101746.03;146600;661;46020;-71
2021/10/27 03:13:09;;;;;;;;;10.00;8.75;;;;;13.88;56.79;101750.59;146598;640;46010;-74
2021/10/27 03:15:43;;;;;;;;;12.75;10.00;;;;;13.89;56.69;101753.25;146601;573;46020;-74
2021/10/27 03:18:17;;;;;;;;;11.75;10.75;;;;;13.89;56.81;101754.97;146593;590;47019;-72
2021/10/27 03:20:53;;;;;;;;;11.50;10.50;;;;;13.90;56.69;101754.19;146599;603;46020;-72
2021/10/27 03:23:27;;;;;;;;;10.25;9.50;;;;;13.86;56.71;101748.78;146598;599;46030;-77
2021/10/27 03:26:01;;;;;;;;;9.75;9.75;;;;;13.83;56.65;101748.63;146599;569;47008;-73
2021/10/27 03:28:35;;;;;;;;;13.75;11.25;;;;;13.82;56.46;101753.75;146598;618;46016;-73
2021/10/27 03:31:09;;;;;;;;;13.50;10.00;;;;;13.78;56.48;101751.78;146598;612;46908;-73
2021/10/27 03:33:43;;;;;;;;;12.00;9.00;;;;;13.75;56.46;101749.91;146598;683;46010;-73
2021/10/27 03:36:17;;;;;;;;;8.50;8.50;;;;;13.72;56.67;101754.97;146600;634;46020;-73
2021/10/27 03:38:50;;;;;;;;;7.00;7.00;;;;;13.69;56.57;101756.50;146598;600;46011;-77
2021/10/27 03:41:24;;;;;;;;;13.25;11.00;;;;;13.66;56.59;101758.94;146600;613;46020;-77
2021/10/27 03:43:58;;;;;;;;;10.00;8.25;;;;;13.62;56.32;101761.38;146596;585;47910;-77
2021/10/27 03:46:32;;;;;;;;;8.75;8.50;;;;;13.58;55.98;101753.28;146603;576;45023;-77
2021/10/27 03:49:07;;;;;;;;;11.00;9.75;;;;;13.55;55.45;101755.72;146597;613;46016;-77
2021/10/27 03:51:41;;;;;;;;;11.75;9.75;;;;;13.53;55.88;101758.25;146599;569;46020;-77
2021/10/27 03:54:15;;;;;;;;;6.50;4.50;;;;;13.53;55.94;101757.38;146598;617;47017;-76
2021/10/27 03:56:49;;;;;;;;;10.25;8.50;;;;;13.51;56.23;101757.25;146599;598;46020;-78
2021/10/27 03:59:25;;;;;;;;;10.00;9.50;;;;;13.51;57.11;101762.47;146598;598;46016;-73
2021/10/27 04:01:59;;;;;;;;;10.25;9.75;;;;;13.51;57.24;101756.38;146601;601;46020;-75
2021/10/27 04:04:33;;;;;;;;;8.25;8.25;;;;;13.50;56.97;101757.19;146596;611;47010;-78
2021/10/27 04:07:07;;;;;;;;;14.50;14.50;;;;;13.52;56.88;101760.75;146597;641;46020;-78
2021/10/27 04:09:41;;;;;;;;;16.00;13.00;;;;;13.53;57.23;101755.66;146598;619;46016;-75
2021/10/27 04:12:15;;;;;;;;;9.50;9.00;;;;;13.55;57.29;101759.25;146599;597;46020;-76
2021/10/27 04:14:49;;;;;;;;;11.75;10.00;;;;;13.55;57.65;101753.13;146599;665;46010;-76
2021/10/27 04:17:24;;;;;;;;;9.50;9.50;;;;;13.56;57.35;101755.81;146600;585;46008;-73
2021/10/27 04:19:57;;;;;;;;;11.00;10.75;;;;;13.58;57.54;101750.69;146598;633;46016;-81
2021/10/27 04:22:31;;;;;;;;;10.00;8.00;;;;;13.62;57.84;101752.66;146597;692;46908;-82
2021/10/27 04:25:05;;;;;;;;;8.50;8.25;;;;;13.62;57.70;101744.84;146596;591;47010;-81
2021/10/27 04:27:40;;;;;;;;;11.75;7.00;;;;;13.66;57.76;101749.41;146598;577;46020;-80
2021/10/27 04:30:14;;;;;;;;;10.25;9.25;;;;;13.70;57.73;101753.06;146594;740;47011;-81
2021/10/27 04:32:48;;;;;;;;;10.25;7.75;;;;;13.75;57.34;101762.06;146598;579;46907;-81
2021/10/27 04:35:22;;;;;;;;;10.75;10.00;;;;;13.77;56.80;101757.81;146600;573;47010;-81
2021/10/27 04:37:57;;;;;;;;;13.50;11.00;;;;;13.76;56.71;101756.91;146599;564;46908;-81
2021/10/27 04:40:31;;;;;;;;;10.50;9.75;;;;;13.77;56.48;101766.53;146599;602;46016;-80
2021/10/27 04:43:05;;;;;;;;;10.25;9.25;;;;;13.76;56.15;101758.63;146597;569;46020;-78
2021/10/27 04:45:39;;;;;;;;;14.25;11.25;;;;;13.75;55.99;101762.06;146597;573;46017;-83
2021/10/27 04:48:15;;;;;;;;;9.25;9.25;;;;;13.70;56.30;101769.59;146598;573;47006;-85
2021/10/27 04:50:49;;;;;;;;;8.75;8.75;;;;;12.76;56.46;101603.72;146596;621;47010;-85
2021/10/27 04:53:25;;;;;;;;;8.75;8.25;;;;;13.62;56.40;101761.38;146599;583;47008;-87
2021/10/27 04:55:59;;;;;;;;;11.50;11.50;;;;;13.61;56.73;101767.41;146595;571;47010;-91
2021/10/27 04:58:34;;;;;;;;;11.00;10.00;;;;;13.59;56.10;101762.91;146603;670;46020;-92
2021/10/27 05:01:11;;;;;;;;;12.50;11.00;;;;;13.58;56.45;101764.63;146600;613;46016;-90
2021/10/27 05:03:45;;;;;;;;;11.50;10.75;;;;;13.56;56.30;101758.44;146600;563;47008;-88
2021/10/27 05:06:19;;;;;;;;;13.00;13.00;;;;;13.56;56.22;101761.03;146597;594;46017;-87
2021/10/27 05:08:53;;;;;;;;;10.75;10.75;;;;;13.57;56.60;101768.03;146599;564;47008;-79
2021/10/27 05:11:27;;;;;;;;;12.25;11.00;;;;;13.58;56.33;101774.12;146596;577;47010;-80
2021/10/27 05:14:01;;;;;;;;;11.25;10.25;;;;;13.56;56.51;101775.78;146601;592;46020;-72
2021/10/27 05:16:35;;;;;;;;;13.50;10.75;;;;;13.57;56.41;101782.78;146598;603;46016;-74
2021/10/27 05:19:09;;;;;;;;;12.25;11.25;;;;;13.58;56.75;101782.87;146600;660;46020;-80
2021/10/27 05:21:43;;;;;;;;;12.75;12.50;;;;;13.58;57.06;101789.78;146596;714;46017;-79
2021/10/27 05:24:17;;;;;;;;;10.00;10.00;;;;;13.61;56.62;101792.53;146598;569;47010;-74
2021/10/27 05:26:50;;;;;;;;;11.25;11.25;;;;;13.60;56.24;101793.37;146597;607;46016;-77
2021/10/27 05:29:25;;;;;;;;;12.25;11.25;;;;;13.61;55.80;101798.69;146601;596;46020;-78
2021/10/27 05:32:00;;;;;;;;;11.00;10.75;;;;;13.62;56.18;101807.41;146598;622;46016;-76
2021/10/27 05:34:34;;;;;;;;;11.00;9.25;;;;;13.61;55.76;101801.28;146599;586;46020;-74
2021/10/27 05:37:08;;;;;;;;;9.00;8.25;;;;;13.62;56.06;101816.09;146599;577;46017;-75
2021/10/27 05:39:42;;;;;;;;;9.75;8.25;;;;;13.62;55.77;101828.25;146599;574;46020;-75
2021/10/27 05:42:21;;;;;;;;;13.50;12.00;;;;;13.63;55.75;101827.41;146597;628;46909;-75
2021/10/27 05:44:57;;;;;;;;;14.75;14.25;;;;;13.61;55.74;101832.56;146601;744;46021;-73
2021/10/27 05:47:31;;;;;;;;;17.00;15.25;;;;;13.63;56.10;101845.66;146594;742;46909;-72
2021/10/27 05:55:59;;;;;;;;;14.50;12.25;;;;;13.69;56.23;101856.44;146598;601;47010;-75
2021/10/27 05:58:34;;;;;;;;;14.25;12.75;;;;;13.71;56.40;101847.00;146600;581;45910;-74
2021/10/27 06:01:08;;;;;;;;;12.25;11.75;;;;;13.72;56.12;101854.00;146599;625;46020;-74
2021/10/27 06:03:42;;;;;;;;;12.00;12.00;;;;;13.75;56.42;101854.19;146597;565;48018;-74
2021/10/27 06:06:15;;;;;;;;;9.50;9.25;;;;;13.76;56.69;101850.75;146601;573;46020;-75
2021/10/27 06:08:52;;;;;;;;;10.25;10.00;;;;;13.78;56.53;101859.56;146597;565;47021;-74
2021/10/27 06:11:26;;;;;;;;;10.25;9.00;;;;;13.81;56.62;101857.13;146601;672;46020;-74
2021/10/27 06:14:00;;;;;;;;;10.00;9.75;;;;;13.83;56.82;101859.81;146598;570;47910;-75
2021/10/27 06:16:35;;;;;;;;;9.75;9.75;;;;;13.85;56.90;101864.31;146604;739;46020;-81
2021/10/27 06:19:09;;;;;;;;;12.25;10.50;;;;;13.86;56.71;101868.72;146599;605;46010;-82
2021/10/27 06:21:43;;;;;;;;;11.25;9.00;;;;;13.88;56.61;101868.78;146601;601;46008;-82
2021/10/27 06:24:17;;;;;;;;;17.50;13.75;;;;;13.91;56.39;101873.28;146594;600;48029;-81
2021/10/27 06:26:51;;;;;;;;;10.75;10.75;;;;;13.92;56.70;101875.97;146600;569;46020;-81
2021/10/27 06:29:30;;;;;;;;;10.50;9.25;;;;;13.94;56.40;101876.97;146595;610;47910;-81
2021/10/27 06:32:32;;;;;;;;;11.00;10.25;;;;;13.94;56.48;101878.69;146599;690;47008;-74
2021/10/27 06:35:10;;;;;;;;;14.00;12.00;;;;;13.97;56.26;101884.06;146597;563;47018;-73
2021/10/27 06:46:40;;;;;;;;;12.00;12.00;;;;;13.97;55.79;101884.06;146597;579;46016;-73
2021/10/27 06:49:14;;;;;;;;;18.25;15.00;;;;;13.97;55.37;101890.16;146599;590;46020;-71
2021/10/27 06:51:48;;;;;;;;;17.50;14.75;;;;;13.98;55.43;101893.69;146599;564;46017;-73
2021/10/27 06:54:22;;;;;;;;;15.25;13.75;;;;;13.97;55.72;101900.59;146603;598;45024;-72
2021/10/27 06:57:00;;;;;;;;;11.50;11.50;;;;;13.97;55.58;101900.59;146598;609;47910;-68
2021/10/27 06:59:40;;;;;;;;;11.75;11.25;;;;;13.99;55.91;101905.91;146595;578;47006;-70
2021/10/27 07:05:24;;;;;;;;;12.75;11.00;;;;;14.06;55.87;101910.66;146601;609;46020;-73
2021/10/27 07:16:35;;;;;;;;;14.00;13.50;;;;;14.15;57.84;101916.38;146600;576;46020;-79
2021/10/27 07:19:09;;;;;;;;;13.25;12.50;;;;;14.17;56.44;101913.84;146595;633;47910;-91
2021/10/27 07:21:43;;;;;;;;;13.50;13.50;;;;;14.20;56.14;101917.53;146599;602;46020;-75
2021/10/27 07:24:17;;;;;;;;;15.00;13.25;;;;;14.22;57.18;101921.13;146596;593;46016;-76
2021/10/27 07:26:53;;;;;;;;;15.50;14.25;;;;;14.26;56.38;101927.41;146595;572;47010;-77
2021/10/27 07:29:27;;;;;;;;;13.00;12.00;;;;;14.28;56.90;101917.97;146597;595;47019;-76
2021/10/27 07:32:03;;;;;;;;;14.25;12.25;;;;;14.30;56.09;101918.97;146599;606;46020;-80
2021/10/27 07:34:43;;;;;;;;;13.75;12.75;;;;;14.28;56.31;101921.47;146596;570;47010;-84
2021/10/27 07:43:23;;;;;;;;;16.75;16.00;;;;;14.35;56.92;101920.09;146600;609;46020;-80
2021/10/27 07:45:57;;;;;;;;;13.25;9.75;;;;;14.39;56.47;101916.84;146597;611;47010;-75
2021/10/27 07:48:33;;;;;;;;;12.25;11.75;;;;;14.39;56.18;101926.38;146600;568;46021;-75
2021/10/27 07:51:10;;;;;;;;;10.50;10.50;;;;;14.38;55.87;101916.75;146597;607;46017;-75
2021/10/27 07:53:44;;;;;;;;;16.75;13.50;;;;;14.37;55.97;101912.34;146597;563;47008;-76
2021/10/27 07:56:18;;;;;;;;;16.00;14.50;;;;;14.36;56.31;101908.84;146599;564;46016;-78
2021/10/27 07:58:53;;;;;;;;;15.75;13.50;;;;;14.34;55.83;101913.09;146601;573;46020;-79
2021/10/27 08:01:28;;;;;;;;;13.50;12.50;;;;;14.31;55.85;101912.91;146599;569;46016;-78
2021/10/27 08:04:05;;;;;;;;;15.25;14.50;;;;;14.28;56.68;101911.03;146603;674;46020;-78
2021/10/27 08:06:39;;;;;;;;;11.50;11.25;;;;;14.29;55.97;101915.44;146599;592;46017;-67
2021/10/27 08:09:14;;;;;;;;;16.00;14.00;;;;;14.28;56.43;101911.03;146599;586;47008;-76
2021/10/27 08:11:49;;;;;;;;;12.50;12.50;;;;;14.30;56.36;101903.31;146595;625;47011;-77
2021/10/27 08:14:22;;;;;;;;;13.50;12.00;;;;;14.32;56.71;101899.03;146598;581;47008;-77
2021/10/27 08:16:56;;;;;;;;;13.75;11.25;;;;;14.35;56.31;101903.53;146597;575;46016;-76
2021/10/27 08:19:30;;;;;;;;;16.50;16.00;;;;;14.38;56.75;101906.31;146601;582;46009;-75
2021/10/27 08:22:07;;;;;;;;;13.25;12.00;;;;;14.43;55.93;101900.53;146598;575;46016;-75
2021/10/27 08:24:41;;;;;;;;;14.25;14.25;;;;;14.49;56.24;101897.38;146598;600;47008;-76
2021/10/27 08:27:20;;;;;;;;;17.75;16.50;;;;;14.56;56.19;101891.69;146592;634;47011;-76
2021/10/27 08:29:54;;;;;;;;;17.25;14.50;;;;;14.64;56.45;101893.00;146600;617;46020;-76
2021/10/27 08:32:41;;;;;;;;;15.25;14.00;;;;;14.71;56.53;101892.50;146597;588;46029;-76
2021/10/27 08:35:16;;;;;;;;;13.00;11.50;;;;;14.82;56.16;101902.62;146600;619;46021;-76
2021/10/27 08:37:53;;;;;;;;;15.75;11.25;;;;;14.87;55.70;101901.16;146598;571;46016;-76
2021/10/27 08:40:27;;;;;;;;;19.00;16.00;;;;;14.94;55.80;101903.25;146597;574;47027;-76
2021/10/27 08:43:04;;;;;;;;;17.00;15.75;;;;;15.00;55.06;101895.75;146596;581;46017;-75
2021/10/27 08:45:38;;;;;;;;;14.00;12.00;;;;;15.06;55.56;101898.66;146598;563;47008;-76
2021/10/27 08:48:15;;;;;;;;;14.75;14.50;;;;;15.17;55.38;101893.97;146595;568;46910;-76
2021/10/27 08:50:52;;;;;;;;;14.00;12.75;;;;;15.29;55.37;101898.94;146602;627;46008;-76
2021/10/27 08:53:26;;;;;;;;;15.75;13.00;;;;;15.40;54.91;101895.19;146596;631;46016;-76
2021/10/27 08:56:03;;;;;;;;;16.75;16.00;;;;;15.48;54.61;101896.44;146598;607;47006;-76
2021/10/27 08:58:43;;;;;;;;;17.50;16.50;;;;;15.55;54.10;101900.28;146599;598;46010;-77
2021/10/27 09:07:51;;;;;;;;;16.00;15.25;;;;;15.42;53.98;101873.53;146600;625;46020;-76
2021/10/27 09:17:01;;;;;;;;;17.25;16.00;;;;;15.76;54.33;101888.25;146597;607;46016;-75
2021/10/27 09:37:53;;;;;;;;;15.00;14.75;;;;;18.46;49.52;101868.47;146625;597;45008;-74
2021/10/27 09:40:55;;;;;;;;;18.00;16.50;;;;;18.56;48.05;101875.84;146624;612;45029;-73
2021/10/27 09:56:31;;;;;;;;;15.25;14.75;;;;;18.05;50.17;101866.91;146627;570;46009;-75
2021/10/27 10:04:53;;;;;;;;;14.50;13.75;;;;;17.95;49.42;101866.56;146626;595;45016;-75
2021/10/27 10:07:27;;;;;;;;;17.50;15.75;;;;;17.94;49.75;101869.09;146627;587;45020;-76
2021/10/27 10:10:01;;;;;;;;;14.25;13.75;;;;;17.89;49.19;101858.44;146623;642;46010;-76
2021/10/27 10:12:45;;;;;;;;;14.75;13.75;;;;;17.86;49.82;101865.31;146624;569;45027;-76
2021/10/27 10:15:23;;;;;;;;;16.00;14.75;;;;;17.83;49.21;101860.81;146621;675;45016;-75
2021/10/27 10:17:58;;;;;;;;;10.50;10.50;;;;;17.75;49.78;101854.31;146628;590;45907;-75
2021/10/27 10:20:32;;;;;;;;;14.00;14.00;;;;;17.69;50.59;101861.94;146623;687;45010;-75
2021/10/27 10:23:28;;;;;;;;;18.75;15.50;;;;;17.66;51.43;101853.97;146623;725;45020;-75
2021/10/27 10:26:08;;;;;;;;;15.75;14.00;;;;;17.64;50.78;101853.91;146598;666;46010;-74
2021/10/27 10:28:47;;;;;;;;;14.25;13.25;;;;;17.64;51.36;101851.28;146601;680;46008;-75
2021/10/27 10:31:39;;;;;;;;;14.00;12.75;;;;;17.64;51.66;101846.03;146596;656;46016;-70
2021/10/27 10:34:49;;;;;;;;;13.50;12.75;;;;;16.72;51.12;101676.22;146602;664;45023;-75
2021/10/27 10:37:40;;;;;;;;;18.00;15.75;;;;;17.62;50.85;101854.66;146600;605;46010;-76
2021/10/27 10:56:38;;;;;;;;;15.50;15.50;;;;;17.40;52.16;101831.94;146594;655;47010;-75
2021/10/27 11:11:55;;;;;;;;;13.50;13.50;;;;;16.70;52.05;101644.75;146595;651;47010;-75
2021/10/27 11:27:00;;;;;;;;;21.25;17.25;;;;;18.03;50.30;101795.09;146595;620;47010;-75
2021/10/27 11:37:20;;;;;;;;;15.50;14.00;;;;;18.02;49.61;101798.56;146598;579;46016;-75
2021/10/27 11:42:00;;;;;;;;;12.75;12.00;;;;;17.93;51.29;101799.97;146596;610;46025;-75
2021/10/27 11:44:59;;;;;;;;;14.75;14.50;;;;;17.89;51.62;101790.22;146594;718;47010;-75
2021/10/27 11:47:55;;;;;;;;;14.00;12.50;;;;;17.90;51.57;101785.84;146599;585;47008;-75
2021/10/27 11:50:39;;;;;;;;;12.00;12.00;;;;;17.73;51.39;101758.97;146597;580;46016;-75
2021/10/27 11:53:31;;;;;;;;;14.25;14.25;;;;;17.76;51.31;101783.56;146598;615;47008;-75
2021/10/27 11:56:35;;;;;;;;;14.25;14.25;;;;;16.67;51.92;101607.97;146598;604;46016;-75
2021/10/27 11:59:09;;;;;;;;;14.75;13.75;;;;;17.66;50.86;101791.00;146600;613;46020;-75
2021/10/27 12:01:43;;;;;;;;;14.75;12.25;;;;;17.63;51.14;101788.25;146593;572;47010;-75
2021/10/27 12:04:18;;;;;;;;;15.00;14.75;;;;;17.59;51.41;101788.97;146601;617;45021;-75
2021/10/27 12:07:00;;;;;;;;;15.25;12.00;;;;;17.53;51.74;101792.25;146595;577;47010;-76
2021/10/27 12:16:03;;;;;;;;;15.25;13.25;;;;;17.52;51.98;101790.47;146599;625;46020;-75
2021/10/27 12:18:37;;;;;;;;;14.75;13.75;;;;;17.52;51.68;101782.59;146598;615;46016;-75
2021/10/27 12:21:11;;;;;;;;;15.75;13.25;;;;;17.50;51.11;101781.63;146598;586;46026;-75
2021/10/27 12:23:53;;;;;;;;;17.25;14.25;;;;;17.49;52.54;101785.09;146597;566;46016;-75
2021/10/27 12:26:27;;;;;;;;;15.25;13.50;;;;;17.50;51.30;101776.41;146598;569;47010;-75
2021/10/27 12:29:22;;;;;;;;;14.75;12.50;;;;;17.48;51.63;101789.47;146593;698;47010;-75
2021/10/27 12:32:18;;;;;;;;;17.25;13.50;;;;;17.43;52.09;101784.84;146599;583;46021;-75
2021/10/27 12:35:03;;;;;;;;;13.75;13.25;;;;;17.42;51.97;101785.69;146596;581;45909;-75
2021/10/27 12:37:41;;;;;;;;;15.50;15.25;;;;;17.40;52.56;101780.38;146598;563;46008;-75
2021/10/27 12:40:34;;;;;;;;;13.75;13.00;;;;;17.45;52.42;101786.72;146596;564;46018;-75
2021/10/27 12:43:19;;;;;;;;;17.00;14.00;;;;;17.50;51.44;101782.53;146601;594;46020;-75
2021/10/27 12:45:57;;;;;;;;;15.00;14.75;;;;;17.58;51.64;101784.59;146597;571;47010;-75
2021/10/27 12:48:41;;;;;;;;;17.50;14.25;;;;;17.65;51.91;101778.75;146601;579;46021;-75
2021/10/27 12:51:15;;;;;;;;;13.00;13.00;;;;;17.70;51.22;101778.09;146596;582;46010;-75
2021/10/27 12:53:51;;;;;;;;;14.00;13.25;;;;;17.72;50.80;101781.66;146597;597;47010;-76
2021/10/27 12:56:32;;;;;;;;;15.25;13.50;;;;;17.76;50.90;101777.44;146598;571;46016;-75
2021/10/27 12:59:11;;;;;;;;;21.25;15.75;;;;;17.82;51.28;101782.97;146600;603;46020;-75
2021/10/27 13:01:51;;;;;;;;;17.25;15.25;;;;;17.91;51.54;101785.00;146596;625;47010;-75
2021/10/27 13:04:45;;;;;;;;;17.25;15.50;;;;;17.99;51.11;101778.34;146598;590;46020;-75
2021/10/27 13:07:29;;;;;;;;;17.25;13.50;;;;;18.02;50.08;101773.22;146598;655;46016;-75
2021/10/27 13:10:11;;;;;;;;;12.75;11.75;;;;;18.05;50.45;101777.69;146601;571;46008;-75
2021/10/27 13:16:09;;;;;;;;;12.25;12.25;;;;;18.22;50.29;101771.31;146598;579;47008;-75
2021/10/27 13:30:35;;;;;;;;;17.25;16.00;;;;;19.14;48.17;101766.66;146597;633;46016;-75
2021/10/27 13:33:09;;;;;;;;;14.00;13.00;;;;;19.16;48.38;101772.87;146599;569;46021;-75
2021/10/27 13:35:43;;;;;;;;;14.50;12.50;;;;;19.28;48.35;101769.72;146596;569;46016;-75
2021/10/27 13:38:19;;;;;;;;;12.25;11.00;;;;;19.50;48.02;101768.69;146599;644;46020;-76
2021/10/27 13:40:53;;;;;;;;;23.25;21.75;;;;;19.72;47.89;101765.94;146596;614;46016;-75
2021/10/27 13:43:35;;;;;;;;;16.25;16.25;;;;;19.95;47.38;101770.97;146601;569;46008;-75
2021/10/27 13:46:36;;;;;;;;;15.75;14.00;;;;;20.15;46.68;101771.53;146596;570;46017;-75
2021/10/27 13:57:53;;;;;;;;;18.75;17.75;;;;;20.25;46.06;101774.50;146595;587;46016;-75
2021/10/27 14:06:16;;;;;;;;;31.00;28.00;;;;;20.19;45.86;101770.81;146599;602;47008;-75
2021/10/27 14:08:59;;;;;;;;;18.75;16.75;;;;;20.16;45.25;101775.97;146595;581;46017;-75
2021/10/27 14:14:59;;;;;;;;;14.00;13.00;;;;;19.90;45.44;101776.09;146598;563;46016;-74
2021/10/27 14:21:57;;;;;;;;;14.50;12.75;;;;;19.54;46.69;101770.59;146597;570;46016;-75
2021/10/27 14:40:54;;;;;;;;;16.00;16.00;;;;;18.85;48.12;101782.37;146601;603;46020;-75
2021/10/27 15:20:53;;;;;;;;;13.50;13.50;;;;;17.84;47.90;101783.88;146602;599;46020;-75
2021/10/27 15:23:39;;;;;;;;;16.50;12.75;;;;;17.71;49.00;101778.97;146596;608;46017;-76
2021/10/27 15:29:24;;;;;;;;;14.75;13.50;;;;;17.43;49.50;101787.47;146594;731;47010;-75
2021/10/27 15:44:00;;;;;;;;;32.00;26.00;;;;;16.69;51.18;101801.81;146599;583;46021;-75
2021/10/27 15:52:22;;;;;;;;;25.00;20.75;;;;;16.37;52.33;101804.81;146595;564;47011;-75
2021/10/27 15:54:56;;;;;;;;;23.00;21.25;;;;;16.26;52.43;101813.91;146599;594;45020;-75
2021/10/27 15:57:30;;;;;;;;;23.50;21.75;;;;;16.20;53.09;101812.72;146595;626;47010;-75
2021/10/27 16:00:04;;;;;;;;;19.75;18.75;;;;;16.08;54.22;101813.06;146598;623;46021;-75
2021/10/27 16:02:38;;;;;;;;;20.75;18.25;;;;;15.90;54.41;101811.38;146596;708;46016;-76
2021/10/27 16:05:12;;;;;;;;;17.75;15.00;;;;;15.74;54.85;101818.44;146599;613;47008;-75
2021/10/27 16:07:49;;;;;;;;;15.50;14.75;;;;;15.59;55.29;101822.06;146599;608;46017;-76
2021/10/27 16:10:23;;;;;;;;;17.50;14.75;;;;;15.43;55.74;101827.38;146598;577;47008;-75